EGDR - Culdrose
Distance from station: E 5mi, 14km
Updated: 01/21/2018 11:50pm
Few Clouds
Few Clouds
 Wind from NW
Wind: NW 13 mph , 20 km/h
Temperature: 48°F , 9°C
Wind Chill: 43°F , 6°C
Dew Point: 46°F , 8°C
Humidity: 94%
Barometer: 29.91 inHg , 1013 hPa
Clouds: Few Clouds
Visibility: 6 miles , 10 km
Cloud details: Few Clouds 600 ft
2018/01/22 07:50 EGDR 220750Z 31011KT 9999 FEW006 09/08 Q1013 BLU TEMPO SCT010 GRN